Time;durP1;ratioP1;P1;durP2;ratioP2;P2;SDS_P1;SDS_P2;PMS_P1;PMS_P2;Temp;Humidity;BMP_temperature;BMP_pressure;BME280_temperature;BME280_humidity;BME280_pressure;Samples;Min_cycle;Max_cycle;Signal;HPM_P1;HPM_P2
2022/09/25 00:01:11;;;;;;;84.87;54.03;;;13.10;95.20;;;;;;4976039;28;20213;-91
2022/09/25 00:03:38;;;;;;;94.77;56.43;;;13.10;95.20;;;;;;4976137;28;20174;-91
2022/09/25 00:06:19;;;;;;;82.37;54.43;;;13.10;95.30;;;;;;4976130;28;20189;-91
2022/09/25 00:08:45;;;;;;;81.00;52.13;;;13.10;95.20;;;;;;4976066;28;20178;-91
2022/09/25 00:11:15;;;;;;;92.60;52.50;;;13.10;95.20;;;;;;4993458;28;20287;-91
2022/09/25 00:13:42;;;;;;;87.23;52.80;;;13.10;95.20;;;;;;4975960;28;20302;-91
2022/09/25 00:16:14;;;;;;;87.37;54.43;;;13.00;95.20;;;;;;4976391;28;20547;-92
2022/09/25 00:21:29;;;;;;;92.40;55.37;;;13.10;95.20;;;;;;4997171;28;20704;-92
2022/09/25 00:24:02;;;;;;;87.80;54.40;;;13.10;95.20;;;;;;4979427;28;20205;-91
2022/09/25 00:26:29;;;;;;;84.77;52.40;;;13.10;95.20;;;;;;4997774;28;20163;-92
2022/09/25 00:28:55;;;;;;;77.30;48.20;;;13.10;95.20;;;;;;4982347;28;20531;-91
2022/09/25 00:31:23;;;;;;;60.57;40.00;;;13.00;95.20;;;;;;4979321;28;20213;-91
2022/09/25 00:33:52;;;;;;;56.73;37.10;;;13.00;95.20;;;;;;4980031;28;20186;-93
2022/09/25 00:36:19;;;;;;;54.27;35.10;;;13.00;95.20;;;;;;4979358;28;20182;-90
2022/09/25 00:38:47;;;;;;;58.13;36.27;;;12.90;95.10;;;;;;4980135;28;20556;-91
2022/09/25 00:41:16;;;;;;;50.40;35.00;;;12.90;95.20;;;;;;4979372;28;20222;-91
2022/09/25 00:43:49;;;;;;;56.57;35.07;;;12.90;95.20;;;;;;4979085;28;20198;-91
2022/09/25 00:46:35;;;;;;;51.77;35.07;;;12.90;95.10;;;;;;4979052;28;20544;-92
2022/09/25 00:49:12;;;;;;;55.53;36.73;;;12.80;95.10;;;;;;4996705;28;20573;-91
2022/09/25 00:51:53;;;;;;;57.57;38.37;;;12.80;95.10;;;;;;4978821;28;20568;-91
2022/09/25 00:54:23;;;;;;;56.67;37.17;;;12.80;95.10;;;;;;4996460;28;20174;-91
2022/09/25 00:56:51;;;;;;;55.00;37.03;;;12.80;95.10;;;;;;4978909;28;20182;-91
2022/09/25 00:59:21;;;;;;;51.80;36.17;;;12.80;95.10;;;;;;4978817;28;20192;-91
2022/09/25 01:01:47;;;;;;;58.97;36.50;;;12.80;95.10;;;;;;4978659;28;20221;-91
2022/09/25 01:04:13;;;;;;;60.03;37.40;;;12.80;95.00;;;;;;4979486;28;20186;-91
2022/09/25 01:06:40;;;;;;;58.57;36.30;;;12.80;95.10;;;;;;4978517;28;20178;-92
2022/09/25 01:09:06;;;;;;;50.47;34.87;;;12.80;95.10;;;;;;4978848;28;20216;-91
2022/09/25 01:11:31;;;;;;;48.53;32.20;;;12.80;95.10;;;;;;4978543;28;20288;-91
2022/09/25 01:14:00;;;;;;;49.23;32.83;;;12.70;95.00;;;;;;4978508;28;20197;-91
2022/09/25 01:17:00;;;;;;;51.20;32.43;;;12.70;95.00;;;;;;4978476;28;20695;-91
2022/09/25 01:19:55;;;;;;;44.80;29.77;;;12.70;95.00;;;;;;4978508;28;20264;-91
2022/09/25 01:22:46;;;;;;;47.97;30.23;;;12.70;95.00;;;;;;4978725;28;20301;-91
2022/09/25 01:25:57;;;;;;;43.33;28.23;;;12.60;95.00;;;;;;4977816;28;20186;-91
2022/09/25 01:28:46;;;;;;;42.83;28.47;;;12.60;95.00;;;;;;4956517;28;20648;-92
2022/09/25 01:31:34;;;;;;;40.03;28.87;;;12.60;95.00;;;;;;4994808;28;20198;-91
2022/09/25 01:34:07;;;;;;;47.20;28.03;;;12.50;95.00;;;;;;4978366;28;20178;-91
2022/09/25 01:36:37;;;;;;;42.33;27.43;;;12.50;95.00;;;;;;4995661;28;20677;-91
2022/09/25 01:39:14;;;;;;;45.63;28.63;;;12.50;95.00;;;;;;4996055;28;20170;-91
2022/09/25 01:41:51;;;;;;;46.37;27.77;;;12.50;95.00;;;;;;4978132;28;20267;-92
2022/09/25 01:44:27;;;;;;;44.70;28.53;;;12.50;95.00;;;;;;4977982;28;20308;-92
2022/09/25 01:46:55;;;;;;;41.33;27.23;;;12.50;95.00;;;;;;4995557;28;20162;-92
2022/09/25 01:51:54;;;;;;;41.40;25.57;;;12.60;95.00;;;;;;5008915;28;20238;-91
2022/09/25 01:54:21;;;;;;;44.63;24.37;;;12.60;95.00;;;;;;4995340;28;20166;-91
2022/09/25 01:56:56;;;;;;;35.27;25.03;;;12.50;95.00;;;;;;4993904;28;20198;-91
2022/09/25 01:59:36;;;;;;;33.73;22.40;;;12.50;95.00;;;;;;4994880;28;20215;-91
2022/09/25 02:02:04;;;;;;;33.80;23.13;;;12.50;95.00;;;;;;4993606;28;20209;-90
2022/09/25 02:04:50;;;;;;;37.40;22.23;;;12.50;94.90;;;;;;4994710;28;20532;-91
2022/09/25 02:07:21;;;;;;;38.00;20.20;;;12.50;95.00;;;;;;4987765;28;20233;-90
2022/09/25 02:09:55;;;;;;;24.67;18.20;;;12.40;95.00;;;;;;4993765;28;20198;-91
2022/09/25 02:12:33;;;;;;;29.20;18.20;;;12.40;95.00;;;;;;4994833;28;20549;-90
2022/09/25 02:15:10;;;;;;;24.83;16.37;;;12.40;95.00;;;;;;4995051;28;20159;-91
2022/09/25 02:20:40;;;;;;;26.70;17.27;;;12.50;95.00;;;;;;4995182;28;20582;-91
2022/09/25 02:23:18;;;;;;;25.83;16.57;;;12.40;95.00;;;;;;4993445;28;20281;-91
2022/09/25 02:26:07;;;;;;;27.67;17.33;;;12.50;95.00;;;;;;4993503;28;20193;-90
2022/09/25 02:28:34;;;;;;;29.33;17.57;;;12.50;95.00;;;;;;4994744;28;20150;-91
2022/09/25 02:31:02;;;;;;;20.23;15.80;;;12.60;95.00;;;;;;4993332;28;20208;-91
2022/09/25 02:33:28;;;;;;;23.83;16.70;;;12.50;95.00;;;;;;4993335;28;20178;-91
2022/09/25 02:35:54;;;;;;;22.33;16.43;;;12.50;95.00;;;;;;4993158;28;20178;-91
2022/09/25 02:38:20;;;;;;;18.57;14.67;;;12.60;95.00;;;;;;4993190;28;20179;-90
2022/09/25 02:41:26;;;;;;;18.60;14.80;;;12.60;95.00;;;;;;4993264;28;20233;-91
2022/09/25 02:44:42;;;;;;;19.50;14.17;;;12.60;95.00;;;;;;4993078;28;20648;-91
2022/09/25 02:47:13;;;;;;;14.10;12.63;;;12.60;95.00;;;;;;4993481;28;20612;-90
2022/09/25 02:49:56;;;;;;;12.23;10.93;;;12.60;95.00;;;;;;4992892;28;20158;-90
2022/09/25 02:52:44;;;;;;;10.30;9.00;;;12.50;95.00;;;;;;4992976;28;20301;-89
2022/09/25 02:55:22;;;;;;;9.57;8.50;;;12.60;95.00;;;;;;4993064;28;20170;-90
2022/09/25 02:57:55;;;;;;;8.23;7.47;;;12.60;95.00;;;;;;4992984;28;20174;-91
2022/09/25 03:00:22;;;;;;;8.37;7.53;;;12.50;94.90;;;;;;4992889;28;20257;-91
2022/09/25 03:02:53;;;;;;;8.43;7.63;;;12.50;94.90;;;;;;4993271;28;20205;-91
2022/09/25 03:05:20;;;;;;;8.50;7.27;;;12.50;94.90;;;;;;4992953;28;20201;-90
2022/09/25 03:10:33;;;;;;;9.47;8.60;;;12.50;94.90;;;;;;4994551;28;20189;-91
2022/09/25 03:13:30;;;;;;;8.33;7.47;;;12.50;94.90;;;;;;4992927;28;20248;-90
2022/09/25 03:15:58;;;;;;;8.20;7.40;;;12.50;94.90;;;;;;4994110;28;20155;-91
2022/09/25 03:18:25;;;;;;;9.40;8.23;;;12.50;94.90;;;;;;4993028;28;20189;-91
2022/09/25 03:20:51;;;;;;;10.60;9.50;;;12.60;94.90;;;;;;4993860;28;20193;-91
2022/09/25 03:23:17;;;;;;;11.50;10.30;;;12.60;94.90;;;;;;4992646;28;20180;-90
2022/09/25 03:25:42;;;;;;;14.63;11.43;;;12.50;94.80;;;;;;4992801;28;20253;-91
2022/09/25 03:28:09;;;;;;;13.27;11.67;;;12.50;94.80;;;;;;4993867;28;20192;-91
2022/09/25 03:30:39;;;;;;;13.93;11.83;;;12.50;94.80;;;;;;4992615;28;20260;-91
2022/09/25 03:33:06;;;;;;;15.17;11.53;;;12.50;94.80;;;;;;4994048;28;20196;-91
2022/09/25 03:35:32;;;;;;;15.67;12.50;;;12.50;94.80;;;;;;4993311;28;20182;-92
2022/09/25 03:37:57;;;;;;;17.63;12.90;;;12.40;94.80;;;;;;4992521;28;20185;-91
2022/09/25 03:40:23;;;;;;;16.90;12.73;;;12.40;94.80;;;;;;4992571;28;20182;-91
2022/09/25 03:42:48;;;;;;;15.73;12.27;;;12.50;94.80;;;;;;4992498;28;20696;-91
2022/09/25 03:45:14;;;;;;;15.70;11.63;;;12.40;94.80;;;;;;4992587;28;20178;-91
2022/09/25 03:47:40;;;;;;;12.93;11.07;;;12.40;94.80;;;;;;4992491;28;20205;-90
2022/09/25 03:50:07;;;;;;;13.47;10.87;;;12.40;94.80;;;;;;4992293;28;20204;-91
2022/09/25 03:52:33;;;;;;;14.67;10.70;;;12.40;94.70;;;;;;4992520;28;20293;-91
2022/09/25 03:54:59;;;;;;;16.00;10.90;;;12.40;94.70;;;;;;4995582;28;20222;-90
2022/09/25 03:57:24;;;;;;;13.73;11.20;;;12.40;94.70;;;;;;4997403;28;20233;-91
2022/09/25 03:59:51;;;;;;;13.90;11.00;;;12.40;94.70;;;;;;4996103;28;20551;-90
2022/09/25 04:02:16;;;;;;;15.07;10.37;;;12.40;94.60;;;;;;4995951;28;20225;-90
2022/09/25 04:04:44;;;;;;;16.23;10.57;;;12.40;94.70;;;;;;4997245;28;20182;-90
2022/09/25 04:07:11;;;;;;;15.50;10.83;;;12.40;94.60;;;;;;4995978;28;20657;-91
2022/09/25 04:09:36;;;;;;;13.27;10.70;;;12.30;94.60;;;;;;4995949;28;20533;-91
2022/09/25 04:12:04;;;;;;;20.43;11.47;;;12.40;94.70;;;;;;4996463;28;20204;-91
2022/09/25 04:14:30;;;;;;;12.73;10.40;;;12.40;94.60;;;;;;4995781;28;20182;-90
2022/09/25 04:16:56;;;;;;;18.03;11.20;;;12.40;94.70;;;;;;4996084;28;20258;-91
2022/09/25 04:19:21;;;;;;;21.07;11.57;;;12.40;94.70;;;;;;4996855;28;20261;-90
2022/09/25 04:21:47;;;;;;;16.13;10.83;;;12.40;94.60;;;;;;4995508;28;20218;-91
2022/09/25 04:26:56;;;;;;;20.50;11.25;;;12.30;94.60;;;;;;4997091;28;20174;-91
2022/09/25 04:29:23;;;;;;;13.07;10.80;;;12.30;94.60;;;;;;4995614;28;20215;-91
2022/09/25 04:33:44;;;;;;;15.90;11.70;;;12.30;94.60;;;;;;4995474;28;20198;-90
2022/09/25 04:34:34;;;;;;;26.83;12.57;;;12.40;94.60;;;;;;4996550;28;20279;-91
2022/09/25 04:37:00;;;;;;;16.30;11.23;;;12.40;94.50;;;;;;4995386;28;20390;-91
2022/09/25 04:39:26;;;;;;;16.73;11.60;;;12.40;94.50;;;;;;4995476;28;20320;-90
2022/09/25 04:41:51;;;;;;;17.83;11.63;;;12.40;94.50;;;;;;4995278;28;20217;-91
2022/09/25 04:44:17;;;;;;;18.87;11.40;;;12.30;94.50;;;;;;4995277;28;20716;-92
2022/09/25 04:46:42;;;;;;;14.27;11.33;;;12.30;94.50;;;;;;4996473;28;20181;-91
2022/09/25 04:49:08;;;;;;;17.40;11.10;;;12.30;94.50;;;;;;4995948;28;20182;-91
2022/09/25 04:51:33;;;;;;;19.63;11.57;;;12.30;94.50;;;;;;4995130;28;20312;-91
2022/09/25 04:53:59;;;;;;;19.10;11.40;;;12.30;94.50;;;;;;4996414;28;20185;-90
2022/09/25 04:56:25;;;;;;;17.37;11.33;;;12.40;94.50;;;;;;4996363;28;20178;-90
2022/09/25 04:58:50;;;;;;;17.37;10.77;;;12.30;94.50;;;;;;4996130;28;20181;-91
2022/09/25 05:01:18;;;;;;;16.43;11.10;;;12.40;94.50;;;;;;4994970;28;20222;-91
2022/09/25 05:03:47;;;;;;;16.87;10.67;;;12.40;94.50;;;;;;4995077;28;20633;-91
2022/09/25 05:06:13;;;;;;;18.60;11.53;;;12.30;94.50;;;;;;4994863;28;20178;-90
2022/09/25 05:08:38;;;;;;;16.93;10.90;;;12.30;94.50;;;;;;4996239;28;20690;-91
2022/09/25 05:11:04;;;;;;;17.70;11.27;;;12.30;94.50;;;;;;4994834;28;20587;-91
2022/09/25 05:13:30;;;;;;;19.53;11.83;;;12.30;94.50;;;;;;4995716;28;20178;-91
2022/09/25 05:15:55;;;;;;;14.97;11.00;;;12.30;94.50;;;;;;4995940;28;20525;-91
2022/09/25 05:18:22;;;;;;;21.60;10.10;;;12.40;94.50;;;;;;4996106;28;20182;-92
2022/09/25 05:20:49;;;;;;;14.07;10.10;;;12.40;94.50;;;;;;4995925;28;20221;-91
2022/09/25 05:23:15;;;;;;;19.07;10.97;;;12.40;94.50;;;;;;4994635;28;20260;-91
2022/09/25 05:25:41;;;;;;;16.83;10.70;;;12.30;94.40;;;;;;4994403;28;20201;-91
2022/09/25 05:28:08;;;;;;;14.07;10.10;;;12.30;94.40;;;;;;4994788;28;20645;-89
2022/09/25 05:30:35;;;;;;;16.23;9.77;;;12.30;94.50;;;;;;4995948;28;20186;-89
2022/09/25 05:33:01;;;;;;;23.17;9.90;;;12.40;94.50;;;;;;4994384;28;20660;-89
2022/09/25 05:35:31;;;;;;;20.17;9.83;;;12.40;94.40;;;;;;4994668;28;20181;-90
2022/09/25 05:37:56;;;;;;;16.23;9.57;;;12.30;94.40;;;;;;4994371;28;20193;-89
2022/09/25 05:40:23;;;;;;;20.30;9.90;;;12.40;94.40;;;;;;4994263;28;20182;-90
2022/09/25 05:42:49;;;;;;;14.77;9.93;;;12.30;94.40;;;;;;4994134;28;20194;-90
2022/09/25 05:45:16;;;;;;;13.50;9.33;;;12.30;94.40;;;;;;4994272;28;20189;-90
2022/09/25 05:47:42;;;;;;;15.20;8.90;;;12.30;94.40;;;;;;4994459;28;20278;-89
2022/09/25 05:50:10;;;;;;;14.83;10.00;;;12.30;94.40;;;;;;4994111;28;20225;-90
2022/09/25 05:52:35;;;;;;;15.80;9.00;;;12.30;94.40;;;;;;4993998;28;20201;-91
2022/09/25 05:55:02;;;;;;;14.73;9.13;;;12.30;94.40;;;;;;4995245;28;20536;-90
2022/09/25 05:57:32;;;;;;;14.37;9.20;;;12.40;94.40;;;;;;4995893;28;20709;-88
2022/09/25 05:59:58;;;;;;;12.77;8.33;;;12.30;94.40;;;;;;4994140;28;20178;-90
2022/09/25 06:02:24;;;;;;;12.80;7.97;;;12.40;94.40;;;;;;4994805;28;20217;-88
2022/09/25 06:04:49;;;;;;;13.07;7.73;;;12.40;94.40;;;;;;4993881;28;20632;-90
2022/09/25 06:07:15;;;;;;;10.77;7.87;;;12.30;94.40;;;;;;4995231;28;20182;-90
2022/09/25 06:09:40;;;;;;;15.13;7.67;;;12.30;94.30;;;;;;4995021;28;20178;-90
2022/09/25 06:12:06;;;;;;;13.57;8.00;;;12.30;94.30;;;;;;4993693;28;20247;-90
2022/09/25 06:14:34;;;;;;;13.30;7.63;;;12.30;94.30;;;;;;4995150;28;20201;-90
2022/09/25 06:17:00;;;;;;;11.40;7.80;;;12.30;94.30;;;;;;4993065;28;20188;-90
2022/09/25 06:19:28;;;;;;;11.73;7.57;;;12.30;94.40;;;;;;4993471;28;20656;-90
2022/09/25 06:21:54;;;;;;;15.50;6.77;;;12.30;94.40;;;;;;4993420;28;20265;-89
2022/09/25 06:24:20;;;;;;;11.47;7.33;;;12.30;94.30;;;;;;4993377;28;20710;-89
2022/09/25 06:26:46;;;;;;;18.77;7.70;;;12.30;94.30;;;;;;4993482;28;20190;-89
2022/09/25 06:29:11;;;;;;;11.70;6.83;;;12.30;94.30;;;;;;4993352;28;20265;-90
2022/09/25 06:31:38;;;;;;;11.80;6.73;;;12.30;94.30;;;;;;4993225;28;20680;-89
2022/09/25 06:34:04;;;;;;;14.97;7.73;;;12.30;94.30;;;;;;4993339;28;20178;-90
2022/09/25 06:36:30;;;;;;;14.43;7.43;;;12.30;94.40;;;;;;4993385;28;20604;-90
2022/09/25 06:38:55;;;;;;;16.83;7.60;;;12.30;94.30;;;;;;4993245;28;20764;-89
2022/09/25 06:41:21;;;;;;;11.57;7.20;;;12.20;94.30;;;;;;4992999;28;20304;-90
2022/09/25 06:43:51;;;;;;;8.03;6.73;;;12.30;94.30;;;;;;4993225;28;20177;-90
2022/09/25 06:46:18;;;;;;;13.20;6.83;;;12.30;94.30;;;;;;4993136;28;20193;-89
2022/09/25 06:48:52;;;;;;;12.37;6.80;;;12.20;94.40;;;;;;4993127;28;20181;-89
2022/09/25 06:51:18;;;;;;;12.50;7.23;;;12.30;94.40;;;;;;4992955;28;20704;-90
2022/09/25 06:53:44;;;;;;;13.40;6.93;;;12.30;94.40;;;;;;4994154;28;20182;-90
2022/09/25 06:56:09;;;;;;;15.07;7.57;;;12.30;94.40;;;;;;4992986;28;20320;-89
2022/09/25 06:58:35;;;;;;;11.17;7.20;;;12.30;94.40;;;;;;4992973;28;20219;-90
2022/09/25 07:01:00;;;;;;;11.83;7.57;;;12.30;94.30;;;;;;4992834;28;20649;-89
2022/09/25 07:03:45;;;;;;;9.20;7.37;;;12.30;94.30;;;;;;4993126;28;20194;-90
2022/09/25 07:06:13;;;;;;;12.30;8.50;;;12.30;94.30;;;;;;4992887;28;20174;-89
2022/09/25 07:08:39;;;;;;;13.27;7.00;;;12.30;94.30;;;;;;4993434;28;20189;-89
2022/09/25 07:11:05;;;;;;;12.93;7.47;;;12.30;94.30;;;;;;4992949;28;20272;-89
2022/09/25 07:13:33;;;;;;;13.80;8.07;;;12.30;94.30;;;;;;4992839;28;20182;-89
2022/09/25 07:16:01;;;;;;;13.50;7.90;;;12.30;94.30;;;;;;4992766;28;20650;-90
2022/09/25 07:18:28;;;;;;;13.73;8.57;;;12.30;94.30;;;;;;4992782;28;20188;-89
2022/09/25 07:21:28;;;;;;;11.13;8.40;;;12.30;94.20;;;;;;4992535;28;20213;-89
2022/09/25 07:23:53;;;;;;;13.77;7.90;;;12.30;94.20;;;;;;4993280;28;20182;-89
2022/09/25 07:26:28;;;;;;;14.87;7.47;;;12.30;94.20;;;;;;4994261;28;20180;-88
2022/09/25 07:28:56;;;;;;;12.63;9.00;;;12.30;94.10;;;;;;4994626;28;20203;-89
2022/09/25 07:31:25;;;;;;;15.27;8.57;;;12.20;94.20;;;;;;4996767;28;20205;-90
2022/09/25 07:33:51;;;;;;;13.57;9.60;;;12.20;94.20;;;;;;4996698;28;20261;-90
2022/09/25 07:36:17;;;;;;;10.67;9.37;;;12.30;94.20;;;;;;4996548;28;20181;-89
2022/09/25 07:38:44;;;;;;;13.20;9.40;;;12.20;94.20;;;;;;4996645;28;20336;-89
2022/09/25 07:41:12;;;;;;;15.77;9.10;;;12.30;94.20;;;;;;4996436;28;20210;-90
2022/09/25 07:43:38;;;;;;;15.23;9.13;;;12.30;94.20;;;;;;4996540;28;20268;-89
2022/09/25 07:46:05;;;;;;;16.93;9.70;;;12.30;94.20;;;;;;4996424;28;20545;-89
2022/09/25 07:48:31;;;;;;;18.10;8.47;;;12.30;94.20;;;;;;4996647;28;20170;-90
2022/09/25 07:51:06;;;;;;;12.93;9.10;;;12.30;94.20;;;;;;4997725;28;20198;-89
2022/09/25 07:53:32;;;;;;;15.07;8.93;;;12.30;94.20;;;;;;4996811;28;20644;-89
2022/09/25 07:55:58;;;;;;;13.03;9.33;;;12.30;94.20;;;;;;4996258;28;20189;-90
2022/09/25 07:58:25;;;;;;;14.53;9.43;;;12.30;94.20;;;;;;4996471;28;20174;-89
2022/09/25 08:00:58;;;;;;;12.67;9.50;;;12.30;94.20;;;;;;4997268;28;20190;-89
2022/09/25 08:03:24;;;;;;;18.23;9.93;;;12.30;94.20;;;;;;4997451;28;20155;-90
2022/09/25 08:06:22;;;;;;;16.30;10.67;;;12.30;94.20;;;;;;4996703;28;20541;-90
2022/09/25 08:08:48;;;;;;;16.07;10.40;;;12.30;94.20;;;;;;4995064;28;20189;-90
2022/09/25 08:11:15;;;;;;;14.70;10.53;;;12.30;94.10;;;;;;4997288;28;20706;-89
2022/09/25 08:13:42;;;;;;;15.53;10.90;;;12.30;94.10;;;;;;4997522;28;20176;-89
2022/09/25 08:16:12;;;;;;;22.43;10.33;;;12.30;94.10;;;;;;4997451;28;20174;-89
2022/09/25 08:18:46;;;;;;;15.47;10.83;;;12.30;94.00;;;;;;4997264;28;20154;-90
2022/09/25 08:21:17;;;;;;;15.90;11.27;;;12.30;94.10;;;;;;4997093;28;20209;-89
2022/09/25 08:23:48;;;;;;;19.90;11.13;;;12.30;94.10;;;;;;4997062;28;20621;-89
2022/09/25 08:26:17;;;;;;;21.07;12.37;;;12.30;94.10;;;;;;4997227;28;20166;-89
2022/09/25 08:28:43;;;;;;;20.40;11.70;;;12.30;94.10;;;;;;4996976;28;20607;-89
2022/09/25 08:31:09;;;;;;;19.63;11.83;;;12.40;94.10;;;;;;4996969;28;20229;-89
2022/09/25 08:33:35;;;;;;;14.27;10.20;;;12.40;94.10;;;;;;4997149;28;20227;-88
2022/09/25 08:36:03;;;;;;;13.17;10.27;;;12.40;94.20;;;;;;4996802;28;20174;-89
2022/09/25 08:38:32;;;;;;;16.47;10.77;;;12.50;94.10;;;;;;4997097;28;20703;-89
2022/09/25 08:41:08;;;;;;;18.93;10.77;;;12.50;94.10;;;;;;4996449;28;20237;-89
2022/09/25 08:43:36;;;;;;;14.77;10.23;;;12.50;94.10;;;;;;4996995;28;20161;-89
2022/09/25 08:49:01;;;;;;;17.70;10.43;;;12.50;94.10;;;;;;4998342;28;20674;-92
2022/09/25 08:51:34;;;;;;;15.27;10.60;;;12.50;94.10;;;;;;4996076;28;20220;-90
2022/09/25 08:54:00;;;;;;;14.20;10.93;;;12.60;94.20;;;;;;4996864;28;20158;-89
2022/09/25 08:56:31;;;;;;;23.47;11.63;;;12.60;94.10;;;;;;4996437;28;20240;-89
2022/09/25 08:59:21;;;;;;;23.90;12.60;;;12.60;94.10;;;;;;4996609;28;20163;-88
2022/09/25 09:01:53;;;;;;;18.53;12.70;;;12.60;94.10;;;;;;4994956;28;20212;-89
2022/09/25 09:04:31;;;;;;;22.77;13.00;;;12.60;94.10;;;;;;4996265;28;20550;-89
2022/09/25 09:07:13;;;;;;;17.30;12.00;;;12.70;94.20;;;;;;4995553;28;20272;-90
2022/09/25 09:10:16;;;;;;;21.07;12.60;;;12.70;94.20;;;;;;4996127;28;20212;-91
2022/09/25 09:12:50;;;;;;;22.30;13.20;;;12.70;94.10;;;;;;4980684;28;20216;-90
2022/09/25 09:15:41;;;;;;;16.73;12.87;;;12.70;94.10;;;;;;4996054;28;20221;-88
2022/09/25 09:18:28;;;;;;;16.07;12.47;;;12.80;94.10;;;;;;4996314;28;20166;-88
2022/09/25 09:20:56;;;;;;;20.97;13.70;;;12.70;94.00;;;;;;4995927;28;20194;-89
2022/09/25 09:23:31;;;;;;;21.17;13.43;;;12.70;94.00;;;;;;4995902;28;20162;-88
2022/09/25 09:25:59;;;;;;;19.63;12.03;;;12.70;94.00;;;;;;4995924;28;20164;-89
2022/09/25 09:28:50;;;;;;;16.90;11.33;;;12.70;94.00;;;;;;4996276;28;20170;-89
2022/09/25 09:31:21;;;;;;;20.30;12.57;;;12.70;93.80;;;;;;4994469;28;20201;-88
2022/09/25 09:34:24;;;;;;;16.53;11.97;;;12.70;93.90;;;;;;4996337;28;20178;-88
2022/09/25 09:37:05;;;;;;;16.77;11.07;;;12.80;93.80;;;;;;4996469;28;20213;-88
2022/09/25 09:39:40;;;;;;;24.43;12.23;;;12.70;93.80;;;;;;4996952;28;20159;-88
2022/09/25 09:42:32;;;;;;;20.33;12.23;;;12.70;93.70;;;;;;4997112;28;20229;-88
2022/09/25 09:45:27;;;;;;;13.90;11.37;;;12.70;93.60;;;;;;4995854;28;20193;-89
2022/09/25 09:48:10;;;;;;;16.87;11.30;;;12.60;93.50;;;;;;4996408;28;20178;-88
2022/09/25 09:50:51;;;;;;;17.57;11.73;;;12.60;93.50;;;;;;4994945;28;20186;-88
2022/09/25 09:53:42;;;;;;;14.10;12.03;;;12.60;93.50;;;;;;4996263;28;20158;-88
2022/09/25 09:56:24;;;;;;;14.77;11.00;;;12.60;93.50;;;;;;4996432;28;20154;-88
2022/09/25 09:58:53;;;;;;;18.87;12.73;;;12.50;93.40;;;;;;4996575;28;20177;-88
2022/09/25 10:01:29;;;;;;;13.70;11.03;;;12.50;93.40;;;;;;4996208;28;20688;-88
2022/09/25 10:04:17;;;;;;;17.80;10.60;;;12.60;93.40;;;;;;4996127;28;20162;-88
2022/09/25 10:06:52;;;;;;;12.27;10.17;;;12.60;93.40;;;;;;4995518;28;20651;-91
2022/09/25 10:09:18;;;;;;;13.47;10.07;;;12.60;93.40;;;;;;4994398;28;20185;-90
2022/09/25 10:11:46;;;;;;;13.03;9.30;;;12.70;93.40;;;;;;4993773;28;20204;-90
2022/09/25 10:14:21;;;;;;;16.03;9.73;;;12.70;93.40;;;;;;4995016;28;20320;-89
2022/09/25 10:16:49;;;;;;;14.53;9.03;;;12.70;93.50;;;;;;4998301;28;20177;-88
2022/09/25 10:19:26;;;;;;;11.20;9.20;;;12.70;93.40;;;;;;4995051;28;20182;-88
2022/09/25 10:22:08;;;;;;;15.47;8.90;;;12.80;93.40;;;;;;4994671;28;20240;-88
2022/09/25 10:24:50;;;;;;;10.77;8.80;;;12.90;93.50;;;;;;4994786;28;20166;-88
2022/09/25 10:27:37;;;;;;;14.33;8.10;;;12.80;93.40;;;;;;4994952;28;20166;-88
2022/09/25 10:30:08;;;;;;;12.77;8.37;;;12.80;93.40;;;;;;4995408;28;20185;-89
2022/09/25 10:32:56;;;;;;;12.67;8.70;;;12.80;93.30;;;;;;4994797;28;20328;-87
2022/09/25 10:35:42;;;;;;;11.83;7.77;;;12.90;93.30;;;;;;4994783;28;20162;-88
2022/09/25 10:38:27;;;;;;;12.90;7.93;;;12.90;93.30;;;;;;4994481;28;20720;-89
2022/09/25 10:41:10;;;;;;;10.73;7.37;;;12.90;93.30;;;;;;4994543;28;20603;-89
2022/09/25 10:43:58;;;;;;;10.07;7.07;;;13.00;93.30;;;;;;4994815;28;20161;-88
2022/09/25 10:52:12;;;;;;;9.30;6.10;;;13.00;93.10;;;;;;4994697;28;20248;-89
2022/09/25 10:54:38;;;;;;;11.20;7.07;;;13.00;93.10;;;;;;4994107;28;20196;-89
2022/09/25 10:57:34;;;;;;;8.17;6.23;;;13.10;93.00;;;;;;4994122;28;20221;-88
2022/09/25 11:00:17;;;;;;;8.00;6.33;;;13.00;93.00;;;;;;4994109;28;20154;-89
2022/09/25 11:02:45;;;;;;;11.80;6.47;;;13.00;92.90;;;;;;4993834;28;20237;-89
2022/09/25 11:05:17;;;;;;;9.13;6.60;;;13.10;92.80;;;;;;4993981;28;20170;-89
2022/09/25 11:07:53;;;;;;;7.33;5.70;;;13.10;92.80;;;;;;4992763;28;20202;-89
2022/09/25 11:10:33;;;;;;;11.67;5.50;;;13.10;92.80;;;;;;4992750;28;20173;-89
2022/09/25 11:13:01;;;;;;;12.47;5.80;;;13.10;92.70;;;;;;4994020;28;20193;-88
2022/09/25 11:15:27;;;;;;;9.60;5.30;;;13.10;92.70;;;;;;4992861;28;20178;-88
2022/09/25 11:17:55;;;;;;;8.93;5.27;;;13.10;92.70;;;;;;4992794;28;20599;-88
2022/09/25 11:20:29;;;;;;;8.30;5.50;;;13.20;92.50;;;;;;4994077;28;20170;-88
2022/09/25 11:23:07;;;;;;;13.43;5.70;;;13.20;92.60;;;;;;4992736;28;20547;-88
2022/09/25 11:25:52;;;;;;;8.47;5.10;;;13.20;92.60;;;;;;4994042;28;20257;-89
2022/09/25 11:28:51;;;;;;;9.80;5.40;;;13.20;92.60;;;;;;4993954;28;20166;-88
2022/09/25 11:31:43;;;;;;;9.53;5.07;;;13.30;92.70;;;;;;4994105;28;20206;-90
2022/09/25 11:34:51;;;;;;;6.70;4.53;;;13.20;92.70;;;;;;4992627;28;20178;-90
2022/09/25 11:37:29;;;;;;;6.80;4.53;;;13.30;92.60;;;;;;4992462;28;20243;-90
2022/09/25 11:43:03;;;;;;;8.40;4.17;;;13.30;92.60;;;;;;4993762;28;20209;-90
2022/09/25 11:45:46;;;;;;;8.17;3.83;;;13.40;92.60;;;;;;4992496;28;20166;-90
2022/09/25 11:48:33;;;;;;;11.73;3.80;;;13.30;92.50;;;;;;4992459;28;20166;-90
2022/09/25 11:51:34;;;;;;;6.47;3.40;;;13.30;92.40;;;;;;4992210;28;20201;-90
2022/09/25 11:54:08;;;;;;;7.70;3.57;;;13.40;92.40;;;;;;4992344;28;20559;-90
2022/09/25 11:56:46;;;;;;;8.97;3.33;;;13.40;92.30;;;;;;4992705;28;20216;-90
2022/09/25 11:59:37;;;;;;;5.57;2.63;;;13.50;92.30;;;;;;4992424;28;20173;-90
2022/09/25 12:02:27;;;;;;;12.23;4.67;;;13.50;92.20;;;;;;4994159;28;20210;-89
2022/09/25 12:05:21;;;;;;;10.37;3.83;;;13.40;92.00;;;;;;4995923;28;20194;-89
2022/09/25 12:08:02;;;;;;;7.20;2.77;;;13.50;92.00;;;;;;4992378;28;20179;-89
2022/09/25 12:10:49;;;;;;;6.87;2.47;;;13.50;91.80;;;;;;4993421;28;20217;-89
2022/09/25 12:13:32;;;;;;;7.10;2.57;;;13.60;91.80;;;;;;4993510;28;20159;-90
2022/09/25 12:16:29;;;;;;;6.73;2.10;;;13.60;91.60;;;;;;4995436;28;20170;-90
2022/09/25 12:19:16;;;;;;;7.93;2.00;;;13.60;91.40;;;;;;4980458;28;20194;-89
2022/09/25 12:21:48;;;;;;;6.97;2.53;;;13.60;91.20;;;;;;4998734;28;20214;-91
2022/09/25 12:24:32;;;;;;;6.87;2.17;;;13.70;91.00;;;;;;5004354;28;20197;-91
2022/09/25 12:27:12;;;;;;;12.40;3.33;;;13.70;90.80;;;;;;5001715;28;20181;-90
2022/09/25 12:29:48;;;;;;;5.43;2.10;;;13.70;90.60;;;;;;4996377;28;20684;-88
2022/09/25 12:33:04;;;;;;;7.37;2.13;;;13.70;90.40;;;;;;4996907;28;20672;-89
2022/09/25 12:35:48;;;;;;;11.13;2.27;;;13.80;90.30;;;;;;4995492;28;20265;-88
2022/09/25 12:38:20;;;;;;;7.80;2.60;;;13.80;89.90;;;;;;4997066;28;20201;-89
2022/09/25 12:40:54;;;;;;;6.63;2.10;;;13.70;89.30;;;;;;4995460;28;20691;-89
2022/09/25 12:43:33;;;;;;;8.60;2.23;;;13.80;89.50;;;;;;4996643;28;20707;-90
2022/09/25 12:46:24;;;;;;;7.50;2.40;;;13.80;89.30;;;;;;4996543;28;20213;-90
2022/09/25 12:49:26;;;;;;;11.27;2.27;;;13.80;89.20;;;;;;4996546;28;20159;-89
2022/09/25 12:51:56;;;;;;;7.97;2.77;;;13.80;89.20;;;;;;4996669;28;20209;-90
2022/09/25 12:54:37;;;;;;;8.70;2.17;;;13.90;89.40;;;;;;4997104;28;20158;-90
2022/09/25 12:57:11;;;;;;;11.97;2.13;;;13.90;89.40;;;;;;5000767;28;20185;-89
2022/09/25 12:59:44;;;;;;;8.47;2.40;;;13.80;89.20;;;;;;4995243;28;20185;-89
2022/09/25 13:02:25;;;;;;;7.67;2.60;;;13.90;89.20;;;;;;4996485;28;20210;-89
2022/09/25 13:04:50;;;;;;;7.53;2.30;;;13.90;89.40;;;;;;4995093;28;20167;-90
2022/09/25 13:07:23;;;;;;;8.23;2.27;;;13.80;88.80;;;;;;4996199;28;20581;-92
2022/09/25 13:09:49;;;;;;;5.07;2.07;;;13.80;88.90;;;;;;4995003;28;20244;-90
2022/09/25 13:12:27;;;;;;;5.83;2.30;;;13.80;88.80;;;;;;4996204;28;20230;-89
2022/09/25 13:14:58;;;;;;;3.50;1.97;;;13.90;88.90;;;;;;4994890;28;20256;-90
2022/09/25 13:17:24;;;;;;;7.23;2.20;;;14.00;89.10;;;;;;4996584;28;20253;-88
2022/09/25 13:19:50;;;;;;;6.63;2.13;;;13.90;88.60;;;;;;4995591;28;20217;-88
2022/09/25 13:22:24;;;;;;;6.67;1.97;;;13.90;88.60;;;;;;4995884;28;20268;-89
2022/09/25 13:25:00;;;;;;;10.83;1.93;;;13.90;88.60;;;;;;4995998;28;20212;-88
2022/09/25 13:27:29;;;;;;;9.73;2.43;;;13.90;88.50;;;;;;4996161;28;20194;-91
2022/09/25 13:29:58;;;;;;;4.70;1.83;;;14.00;88.60;;;;;;4995754;28;20197;-90